sensor_id;sensor_type;location;lat;lon;timestamp;P1;durP1;ratioP1;P2;durP2;ratioP2
69188;SDS011;56302;52.322;5.926;2022-11-12T00:01:16;13.20;;;8.27;;
69188;SDS011;56302;52.322;5.926;2022-11-12T00:03:41;14.20;;;8.50;;
69188;SDS011;56302;52.322;5.926;2022-11-12T00:06:07;15.37;;;7.73;;
69188;SDS011;56302;52.322;5.926;2022-11-12T00:08:32;16.88;;;8.98;;
69188;SDS011;56302;52.322;5.926;2022-11-12T00:10:58;12.67;;;6.83;;
69188;SDS011;56302;52.322;5.926;2022-11-12T00:13:23;16.40;;;8.37;;
69188;SDS011;56302;52.322;5.926;2022-11-12T00:15:49;11.93;;;7.20;;
69188;SDS011;56302;52.322;5.926;2022-11-12T00:18:14;11.23;;;6.43;;
69188;SDS011;56302;52.322;5.926;2022-11-12T00:20:40;9.87;;;5.50;;
69188;SDS011;56302;52.322;5.926;2022-11-12T00:23:05;11.40;;;5.83;;
69188;SDS011;56302;52.322;5.926;2022-11-12T00:25:31;10.13;;;5.55;;
69188;SDS011;56302;52.322;5.926;2022-11-12T00:28:04;9.23;;;4.90;;
69188;SDS011;56302;52.322;5.926;2022-11-12T00:30:35;11.40;;;4.90;;
69188;SDS011;56302;52.322;5.926;2022-11-12T00:33:02;11.57;;;5.40;;
69188;SDS011;56302;52.322;5.926;2022-11-12T00:35:32;12.87;;;6.53;;
69188;SDS011;56302;52.322;5.926;2022-11-12T00:37:58;11.77;;;5.10;;
69188;SDS011;56302;52.322;5.926;2022-11-12T00:40:24;9.68;;;5.13;;
69188;SDS011;56302;52.322;5.926;2022-11-12T00:42:51;16.90;;;8.52;;
69188;SDS011;56302;52.322;5.926;2022-11-12T00:45:20;18.38;;;8.45;;
69188;SDS011;56302;52.322;5.926;2022-11-12T00:47:46;19.60;;;10.07;;
69188;SDS011;56302;52.322;5.926;2022-11-12T00:50:11;21.42;;;10.50;;
69188;SDS011;56302;52.322;5.926;2022-11-12T00:52:37;19.50;;;9.33;;
69188;SDS011;56302;52.322;5.926;2022-11-12T00:55:03;21.70;;;9.48;;
69188;SDS011;56302;52.322;5.926;2022-11-12T00:57:29;19.80;;;8.95;;
69188;SDS011;56302;52.322;5.926;2022-11-12T00:59:54;16.43;;;7.83;;
69188;SDS011;56302;52.322;5.926;2022-11-12T01:02:20;15.30;;;6.72;;
69188;SDS011;56302;52.322;5.926;2022-11-12T01:04:46;16.00;;;7.27;;
69188;SDS011;56302;52.322;5.926;2022-11-12T01:07:12;11.65;;;6.38;;
69188;SDS011;56302;52.322;5.926;2022-11-12T01:09:39;14.90;;;6.60;;
69188;SDS011;56302;52.322;5.926;2022-11-12T01:12:05;13.13;;;6.30;;
69188;SDS011;56302;52.322;5.926;2022-11-12T01:14:30;10.43;;;6.30;;
69188;SDS011;56302;52.322;5.926;2022-11-12T01:16:56;9.98;;;5.43;;
69188;SDS011;56302;52.322;5.926;2022-11-12T01:19:21;9.63;;;4.77;;
69188;SDS011;56302;52.322;5.926;2022-11-12T01:21:47;13.40;;;6.00;;
69188;SDS011;56302;52.322;5.926;2022-11-12T01:24:12;10.03;;;5.53;;
69188;SDS011;56302;52.322;5.926;2022-11-12T01:26:38;10.40;;;5.90;;
69188;SDS011;56302;52.322;5.926;2022-11-12T01:29:04;13.03;;;6.23;;
69188;SDS011;56302;52.322;5.926;2022-11-12T01:31:31;12.35;;;5.82;;
69188;SDS011;56302;52.322;5.926;2022-11-12T01:33:59;11.13;;;6.13;;
69188;SDS011;56302;52.322;5.926;2022-11-12T01:36:29;13.00;;;5.80;;
69188;SDS011;56302;52.322;5.926;2022-11-12T01:38:57;10.07;;;5.90;;
69188;SDS011;56302;52.322;5.926;2022-11-12T01:41:24;10.48;;;5.32;;
69188;SDS011;56302;52.322;5.926;2022-11-12T01:44:11;9.60;;;5.97;;
69188;SDS011;56302;52.322;5.926;2022-11-12T01:46:53;10.82;;;5.93;;
69188;SDS011;56302;52.322;5.926;2022-11-12T01:50:06;10.85;;;5.75;;
69188;SDS011;56302;52.322;5.926;2022-11-12T01:52:19;10.75;;;6.88;;
69188;SDS011;56302;52.322;5.926;2022-11-12T01:55:01;11.43;;;5.82;;
69188;SDS011;56302;52.322;5.926;2022-11-12T01:57:39;13.47;;;6.43;;
69188;SDS011;56302;52.322;5.926;2022-11-12T02:00:14;9.10;;;5.30;;
69188;SDS011;56302;52.322;5.926;2022-11-12T02:02:40;10.38;;;6.22;;
69188;SDS011;56302;52.322;5.926;2022-11-12T02:05:11;9.73;;;5.40;;
69188;SDS011;56302;52.322;5.926;2022-11-12T02:07:39;9.73;;;6.18;;
69188;SDS011;56302;52.322;5.926;2022-11-12T02:10:06;12.57;;;6.50;;
69188;SDS011;56302;52.322;5.926;2022-11-12T02:12:33;17.83;;;8.25;;
69188;SDS011;56302;52.322;5.926;2022-11-12T02:15:17;14.55;;;7.80;;
69188;SDS011;56302;52.322;5.926;2022-11-12T02:17:42;16.03;;;7.90;;
69188;SDS011;56302;52.322;5.926;2022-11-12T02:20:09;12.25;;;7.22;;
69188;SDS011;56302;52.322;5.926;2022-11-12T02:22:36;13.50;;;7.57;;
69188;SDS011;56302;52.322;5.926;2022-11-12T02:25:01;11.95;;;7.40;;
69188;SDS011;56302;52.322;5.926;2022-11-12T02:27:27;12.27;;;7.47;;
69188;SDS011;56302;52.322;5.926;2022-11-12T02:29:53;12.77;;;6.50;;
69188;SDS011;56302;52.322;5.926;2022-11-12T02:32:18;12.33;;;7.57;;
69188;SDS011;56302;52.322;5.926;2022-11-12T02:34:44;12.65;;;7.55;;
69188;SDS011;56302;52.322;5.926;2022-11-12T02:37:09;14.87;;;6.20;;
69188;SDS011;56302;52.322;5.926;2022-11-12T02:39:35;9.87;;;6.17;;
69188;SDS011;56302;52.322;5.926;2022-11-12T02:42:01;10.38;;;5.63;;
69188;SDS011;56302;52.322;5.926;2022-11-12T02:44:26;8.50;;;4.90;;
69188;SDS011;56302;52.322;5.926;2022-11-12T02:46:52;14.57;;;5.97;;
69188;SDS011;56302;52.322;5.926;2022-11-12T02:49:18;10.73;;;5.50;;
69188;SDS011;56302;52.322;5.926;2022-11-12T02:51:43;8.83;;;5.40;;
69188;SDS011;56302;52.322;5.926;2022-11-12T02:54:09;9.35;;;5.72;;
69188;SDS011;56302;52.322;5.926;2022-11-12T02:56:34;10.70;;;6.30;;
69188;SDS011;56302;52.322;5.926;2022-11-12T02:59:00;14.27;;;7.30;;
69188;SDS011;56302;52.322;5.926;2022-11-12T03:01:26;11.27;;;6.22;;
69188;SDS011;56302;52.322;5.926;2022-11-12T03:03:51;14.90;;;6.17;;
69188;SDS011;56302;52.322;5.926;2022-11-12T03:06:17;11.15;;;6.85;;
69188;SDS011;56302;52.322;5.926;2022-11-12T03:08:42;14.33;;;6.57;;
69188;SDS011;56302;52.322;5.926;2022-11-12T03:11:09;13.13;;;6.97;;
69188;SDS011;56302;52.322;5.926;2022-11-12T03:13:36;11.32;;;6.55;;
69188;SDS011;56302;52.322;5.926;2022-11-12T03:16:02;11.98;;;6.72;;
69188;SDS011;56302;52.322;5.926;2022-11-12T03:18:28;11.07;;;6.50;;
69188;SDS011;56302;52.322;5.926;2022-11-12T03:20:54;12.13;;;6.78;;
69188;SDS011;56302;52.322;5.926;2022-11-12T03:23:19;12.17;;;6.60;;
69188;SDS011;56302;52.322;5.926;2022-11-12T03:25:45;11.30;;;6.30;;
69188;SDS011;56302;52.322;5.926;2022-11-12T03:28:11;13.77;;;6.93;;
69188;SDS011;56302;52.322;5.926;2022-11-12T03:30:39;10.38;;;6.38;;
69188;SDS011;56302;52.322;5.926;2022-11-12T03:33:07;9.60;;;5.30;;
69188;SDS011;56302;52.322;5.926;2022-11-12T03:35:35;10.57;;;6.22;;
69188;SDS011;56302;52.322;5.926;2022-11-12T03:38:02;9.45;;;5.93;;
69188;SDS011;56302;52.322;5.926;2022-11-12T03:40:28;14.10;;;6.72;;
69188;SDS011;56302;52.322;5.926;2022-11-12T03:42:54;13.20;;;7.25;;
69188;SDS011;56302;52.322;5.926;2022-11-12T03:45:20;11.57;;;6.23;;
69188;SDS011;56302;52.322;5.926;2022-11-12T03:47:48;11.90;;;6.88;;
69188;SDS011;56302;52.322;5.926;2022-11-12T03:50:17;11.55;;;6.65;;
69188;SDS011;56302;52.322;5.926;2022-11-12T03:52:44;10.07;;;6.13;;
69188;SDS011;56302;52.322;5.926;2022-11-12T03:55:11;12.30;;;6.70;;
69188;SDS011;56302;52.322;5.926;2022-11-12T03:57:38;15.23;;;7.90;;
69188;SDS011;56302;52.322;5.926;2022-11-12T04:00:04;13.20;;;7.25;;
69188;SDS011;56302;52.322;5.926;2022-11-12T04:02:31;14.40;;;8.23;;
69188;SDS011;56302;52.322;5.926;2022-11-12T04:04:57;14.33;;;7.97;;
69188;SDS011;56302;52.322;5.926;2022-11-12T04:07:41;18.35;;;8.38;;
69188;SDS011;56302;52.322;5.926;2022-11-12T04:10:25;14.82;;;7.90;;
69188;SDS011;56302;52.322;5.926;2022-11-12T04:12:53;15.93;;;8.55;;
69188;SDS011;56302;52.322;5.926;2022-11-12T04:15:37;16.23;;;8.57;;
69188;SDS011;56302;52.322;5.926;2022-11-12T04:18:02;20.80;;;8.93;;
69188;SDS011;56302;52.322;5.926;2022-11-12T04:20:47;17.35;;;8.93;;
69188;SDS011;56302;52.322;5.926;2022-11-12T04:23:31;16.93;;;9.23;;
69188;SDS011;56302;52.322;5.926;2022-11-12T04:25:57;18.20;;;9.13;;
69188;SDS011;56302;52.322;5.926;2022-11-12T04:28:41;16.97;;;8.47;;
69188;SDS011;56302;52.322;5.926;2022-11-12T04:31:29;16.58;;;9.20;;
69188;SDS011;56302;52.322;5.926;2022-11-12T04:33:54;28.02;;;9.27;;
69188;SDS011;56302;52.322;5.926;2022-11-12T04:36:40;20.23;;;8.70;;
69188;SDS011;56302;52.322;5.926;2022-11-12T04:39:06;15.38;;;8.20;;
69188;SDS011;56302;52.322;5.926;2022-11-12T04:41:31;18.07;;;9.17;;
69188;SDS011;56302;52.322;5.926;2022-11-12T04:44:15;27.73;;;8.45;;
69188;SDS011;56302;52.322;5.926;2022-11-12T04:46:59;29.70;;;9.00;;
69188;SDS011;56302;52.322;5.926;2022-11-12T04:49:24;23.50;;;8.63;;
69188;SDS011;56302;52.322;5.926;2022-11-12T04:51:50;39.87;;;10.20;;
69188;SDS011;56302;52.322;5.926;2022-11-12T04:54:31;17.58;;;9.38;;
69188;SDS011;56302;52.322;5.926;2022-11-12T04:56:57;21.75;;;8.55;;
69188;SDS011;56302;52.322;5.926;2022-11-12T04:59:23;13.80;;;8.20;;
69188;SDS011;56302;52.322;5.926;2022-11-12T05:01:48;25.90;;;9.43;;
69188;SDS011;56302;52.322;5.926;2022-11-12T05:04:14;17.47;;;9.57;;
69188;SDS011;56302;52.322;5.926;2022-11-12T05:06:40;16.10;;;9.05;;
69188;SDS011;56302;52.322;5.926;2022-11-12T05:09:18;13.97;;;8.77;;
69188;SDS011;56302;52.322;5.926;2022-11-12T05:11:45;18.70;;;9.43;;
69188;SDS011;56302;52.322;5.926;2022-11-12T05:14:11;16.70;;;8.52;;
69188;SDS011;56302;52.322;5.926;2022-11-12T05:16:37;27.23;;;9.15;;
69188;SDS011;56302;52.322;5.926;2022-11-12T05:19:03;22.08;;;9.20;;
69188;SDS011;56302;52.322;5.926;2022-11-12T05:21:29;25.27;;;8.80;;
69188;SDS011;56302;52.322;5.926;2022-11-12T05:24:13;28.10;;;8.98;;
69188;SDS011;56302;52.322;5.926;2022-11-12T05:26:39;20.45;;;8.35;;
69188;SDS011;56302;52.322;5.926;2022-11-12T05:29:05;12.52;;;7.90;;
69188;SDS011;56302;52.322;5.926;2022-11-12T05:31:31;14.57;;;8.20;;
69188;SDS011;56302;52.322;5.926;2022-11-12T05:33:56;13.35;;;8.15;;
69188;SDS011;56302;52.322;5.926;2022-11-12T05:36:22;13.73;;;7.90;;
69188;SDS011;56302;52.322;5.926;2022-11-12T05:38:47;13.47;;;8.07;;
69188;SDS011;56302;52.322;5.926;2022-11-12T05:41:13;15.80;;;8.30;;
69188;SDS011;56302;52.322;5.926;2022-11-12T05:43:39;25.02;;;9.20;;
69188;SDS011;56302;52.322;5.926;2022-11-12T05:46:04;16.57;;;8.27;;
69188;SDS011;56302;52.322;5.926;2022-11-12T05:48:30;16.60;;;8.70;;
69188;SDS011;56302;52.322;5.926;2022-11-12T05:50:55;17.58;;;8.63;;
69188;SDS011;56302;52.322;5.926;2022-11-12T05:53:21;13.60;;;8.60;;
69188;SDS011;56302;52.322;5.926;2022-11-12T05:55:47;13.60;;;7.90;;
69188;SDS011;56302;52.322;5.926;2022-11-12T05:58:12;14.40;;;8.50;;
69188;SDS011;56302;52.322;5.926;2022-11-12T06:00:38;11.53;;;8.10;;
69188;SDS011;56302;52.322;5.926;2022-11-12T06:03:06;14.15;;;8.25;;
69188;SDS011;56302;52.322;5.926;2022-11-12T06:05:32;12.60;;;7.93;;
69188;SDS011;56302;52.322;5.926;2022-11-12T06:07:58;13.38;;;8.13;;
69188;SDS011;56302;52.322;5.926;2022-11-12T06:10:24;13.97;;;8.33;;
69188;SDS011;56302;52.322;5.926;2022-11-12T06:12:50;13.18;;;8.98;;
69188;SDS011;56302;52.322;5.926;2022-11-12T06:15:16;16.65;;;8.75;;
69188;SDS011;56302;52.322;5.926;2022-11-12T06:17:41;13.20;;;7.75;;
69188;SDS011;56302;52.322;5.926;2022-11-12T06:20:07;13.20;;;8.33;;
69188;SDS011;56302;52.322;5.926;2022-11-12T06:22:33;14.02;;;7.85;;
69188;SDS011;56302;52.322;5.926;2022-11-12T06:24:59;12.90;;;8.03;;
69188;SDS011;56302;52.322;5.926;2022-11-12T06:27:25;12.93;;;7.78;;
69188;SDS011;56302;52.322;5.926;2022-11-12T06:29:50;34.70;;;8.73;;
69188;SDS011;56302;52.322;5.926;2022-11-12T06:32:16;19.98;;;7.85;;
69188;SDS011;56302;52.322;5.926;2022-11-12T06:34:41;18.53;;;8.20;;
69188;SDS011;56302;52.322;5.926;2022-11-12T06:37:07;14.67;;;7.40;;
69188;SDS011;56302;52.322;5.926;2022-11-12T06:39:32;12.90;;;7.38;;
69188;SDS011;56302;52.322;5.926;2022-11-12T06:41:58;12.43;;;7.43;;
69188;SDS011;56302;52.322;5.926;2022-11-12T06:44:23;18.47;;;8.37;;
69188;SDS011;56302;52.322;5.926;2022-11-12T06:46:49;28.77;;;8.53;;
69188;SDS011;56302;52.322;5.926;2022-11-12T06:49:15;11.65;;;7.13;;
69188;SDS011;56302;52.322;5.926;2022-11-12T06:51:40;12.13;;;7.77;;
69188;SDS011;56302;52.322;5.926;2022-11-12T06:54:06;11.43;;;6.85;;
69188;SDS011;56302;52.322;5.926;2022-11-12T06:56:31;12.60;;;7.10;;
69188;SDS011;56302;52.322;5.926;2022-11-12T06:58:57;10.93;;;7.03;;
69188;SDS011;56302;52.322;5.926;2022-11-12T07:01:23;17.50;;;7.82;;
69188;SDS011;56302;52.322;5.926;2022-11-12T07:03:49;15.10;;;7.83;;
69188;SDS011;56302;52.322;5.926;2022-11-12T07:06:17;10.55;;;7.35;;
69188;SDS011;56302;52.322;5.926;2022-11-12T07:08:44;14.05;;;7.53;;
69188;SDS011;56302;52.322;5.926;2022-11-12T07:11:11;11.75;;;7.80;;
69188;SDS011;56302;52.322;5.926;2022-11-12T07:13:37;14.97;;;7.87;;
69188;SDS011;56302;52.322;5.926;2022-11-12T07:16:04;13.80;;;7.10;;
69188;SDS011;56302;52.322;5.926;2022-11-12T07:18:32;11.40;;;7.43;;
69188;SDS011;56302;52.322;5.926;2022-11-12T07:21:09;12.55;;;7.53;;
69188;SDS011;56302;52.322;5.926;2022-11-12T07:23:36;16.70;;;8.10;;
69188;SDS011;56302;52.322;5.926;2022-11-12T07:26:03;12.85;;;7.50;;
69188;SDS011;56302;52.322;5.926;2022-11-12T07:28:49;14.75;;;8.32;;
69188;SDS011;56302;52.322;5.926;2022-11-12T07:31:16;13.30;;;8.23;;
69188;SDS011;56302;52.322;5.926;2022-11-12T07:33:43;12.65;;;7.63;;
69188;SDS011;56302;52.322;5.926;2022-11-12T07:36:11;18.88;;;9.10;;
69188;SDS011;56302;52.322;5.926;2022-11-12T07:38:38;14.85;;;8.25;;
69188;SDS011;56302;52.322;5.926;2022-11-12T07:41:16;14.57;;;8.32;;
69188;SDS011;56302;52.322;5.926;2022-11-12T07:43:46;13.10;;;8.03;;
69188;SDS011;56302;52.322;5.926;2022-11-12T07:46:17;17.38;;;8.73;;
69188;SDS011;56302;52.322;5.926;2022-11-12T07:48:44;16.05;;;9.02;;
69188;SDS011;56302;52.322;5.926;2022-11-12T07:51:26;17.02;;;10.25;;
69188;SDS011;56302;52.322;5.926;2022-11-12T07:53:54;20.23;;;11.57;;
69188;SDS011;56302;52.322;5.926;2022-11-12T07:56:21;18.70;;;11.43;;
69188;SDS011;56302;52.322;5.926;2022-11-12T07:58:48;19.30;;;10.73;;
69188;SDS011;56302;52.322;5.926;2022-11-12T08:03:43;16.00;;;9.60;;
69188;SDS011;56302;52.322;5.926;2022-11-12T08:06:09;16.45;;;10.05;;
69188;SDS011;56302;52.322;5.926;2022-11-12T08:08:34;19.50;;;10.93;;
69188;SDS011;56302;52.322;5.926;2022-11-12T08:11:00;16.67;;;9.60;;
69188;SDS011;56302;52.322;5.926;2022-11-12T08:13:25;23.70;;;9.95;;
69188;SDS011;56302;52.322;5.926;2022-11-12T08:15:51;28.73;;;9.20;;
69188;SDS011;56302;52.322;5.926;2022-11-12T08:18:16;16.17;;;8.63;;
69188;SDS011;56302;52.322;5.926;2022-11-12T08:20:42;15.98;;;8.25;;
69188;SDS011;56302;52.322;5.926;2022-11-12T08:23:08;15.60;;;8.43;;
69188;SDS011;56302;52.322;5.926;2022-11-12T08:25:34;12.93;;;7.68;;
69188;SDS011;56302;52.322;5.926;2022-11-12T08:28:00;10.93;;;7.38;;
69188;SDS011;56302;52.322;5.926;2022-11-12T08:30:25;12.57;;;8.13;;
69188;SDS011;56302;52.322;5.926;2022-11-12T08:32:55;14.25;;;8.25;;
69188;SDS011;56302;52.322;5.926;2022-11-12T08:35:23;13.95;;;8.20;;
69188;SDS011;56302;52.322;5.926;2022-11-12T08:37:50;12.27;;;8.23;;
69188;SDS011;56302;52.322;5.926;2022-11-12T08:40:15;12.83;;;8.03;;
69188;SDS011;56302;52.322;5.926;2022-11-12T08:42:41;14.00;;;9.10;;
69188;SDS011;56302;52.322;5.926;2022-11-12T08:45:06;12.40;;;8.43;;
69188;SDS011;56302;52.322;5.926;2022-11-12T08:47:32;12.20;;;7.87;;
69188;SDS011;56302;52.322;5.926;2022-11-12T08:49:58;13.48;;;7.82;;
69188;SDS011;56302;52.322;5.926;2022-11-12T08:52:23;15.03;;;9.10;;
69188;SDS011;56302;52.322;5.926;2022-11-12T08:54:49;14.83;;;9.67;;
69188;SDS011;56302;52.322;5.926;2022-11-12T08:57:18;16.90;;;10.90;;
69188;SDS011;56302;52.322;5.926;2022-11-12T08:59:43;15.10;;;9.87;;
69188;SDS011;56302;52.322;5.926;2022-11-12T09:02:12;17.87;;;10.80;;
69188;SDS011;56302;52.322;5.926;2022-11-12T09:04:37;17.20;;;10.68;;
69188;SDS011;56302;52.322;5.926;2022-11-12T09:07:03;19.55;;;11.90;;
69188;SDS011;56302;52.322;5.926;2022-11-12T09:09:29;19.30;;;11.03;;
69188;SDS011;56302;52.322;5.926;2022-11-12T09:11:54;20.97;;;11.07;;
69188;SDS011;56302;52.322;5.926;2022-11-12T09:14:20;16.80;;;11.68;;
69188;SDS011;56302;52.322;5.926;2022-11-12T09:16:45;18.57;;;10.67;;
69188;SDS011;56302;52.322;5.926;2022-11-12T09:19:11;20.77;;;11.47;;
69188;SDS011;56302;52.322;5.926;2022-11-12T09:21:36;17.67;;;11.20;;
69188;SDS011;56302;52.322;5.926;2022-11-12T09:24:02;20.85;;;12.90;;
69188;SDS011;56302;52.322;5.926;2022-11-12T09:26:27;19.87;;;12.27;;
69188;SDS011;56302;52.322;5.926;2022-11-12T09:28:53;25.73;;;12.80;;
69188;SDS011;56302;52.322;5.926;2022-11-12T09:31:18;21.90;;;13.57;;
69188;SDS011;56302;52.322;5.926;2022-11-12T09:33:44;22.37;;;13.30;;
69188;SDS011;56302;52.322;5.926;2022-11-12T09:36:10;22.05;;;13.30;;
69188;SDS011;56302;52.322;5.926;2022-11-12T09:38:35;22.83;;;13.77;;
69188;SDS011;56302;52.322;5.926;2022-11-12T09:41:18;19.10;;;12.00;;
69188;SDS011;56302;52.322;5.926;2022-11-12T09:43:51;20.55;;;13.23;;
69188;SDS011;56302;52.322;5.926;2022-11-12T09:46:23;20.70;;;12.70;;
69188;SDS011;56302;52.322;5.926;2022-11-12T09:48:57;23.25;;;13.65;;
69188;SDS011;56302;52.322;5.926;2022-11-12T09:51:32;22.37;;;13.10;;
69188;SDS011;56302;52.322;5.926;2022-11-12T09:54:01;20.65;;;13.15;;
69188;SDS011;56302;52.322;5.926;2022-11-12T09:56:37;24.25;;;13.50;;
69188;SDS011;56302;52.322;5.926;2022-11-12T09:59:04;23.37;;;13.53;;
69188;SDS011;56302;52.322;5.926;2022-11-12T10:07:12;22.30;;;13.55;;
69188;SDS011;56302;52.322;5.926;2022-11-12T10:12:39;20.87;;;13.47;;
69188;SDS011;56302;52.322;5.926;2022-11-12T10:15:35;22.23;;;12.93;;
69188;SDS011;56302;52.322;5.926;2022-11-12T10:24:10;23.80;;;13.88;;
69188;SDS011;56302;52.322;5.926;2022-11-12T10:26:37;20.13;;;11.63;;
69188;SDS011;56302;52.322;5.926;2022-11-12T10:31:34;21.10;;;11.57;;
69188;SDS011;56302;52.322;5.926;2022-11-12T10:36:39;16.60;;;10.60;;
69188;SDS011;56302;52.322;5.926;2022-11-12T10:39:09;19.27;;;11.52;;
69188;SDS011;56302;52.322;5.926;2022-11-12T10:41:34;18.02;;;11.52;;
69188;SDS011;56302;52.322;5.926;2022-11-12T10:44:01;17.85;;;11.07;;
69188;SDS011;56302;52.322;5.926;2022-11-12T10:46:29;19.05;;;11.02;;
69188;SDS011;56302;52.322;5.926;2022-11-12T10:49:21;15.37;;;10.03;;
69188;SDS011;56302;52.322;5.926;2022-11-12T10:51:53;14.68;;;9.65;;
69188;SDS011;56302;52.322;5.926;2022-11-12T10:57:16;15.70;;;10.57;;
69188;SDS011;56302;52.322;5.926;2022-11-12T11:00:07;16.50;;;10.50;;
69188;SDS011;56302;52.322;5.926;2022-11-12T11:02:36;18.20;;;10.67;;
69188;SDS011;56302;52.322;5.926;2022-11-12T11:07:57;16.10;;;11.70;;
69188;SDS011;56302;52.322;5.926;2022-11-12T11:10:29;16.83;;;10.37;;
69188;SDS011;56302;52.322;5.926;2022-11-12T11:13:12;17.58;;;10.30;;
69188;SDS011;56302;52.322;5.926;2022-11-12T11:16:04;15.15;;;10.48;;
69188;SDS011;56302;52.322;5.926;2022-11-12T11:18:32;15.77;;;10.17;;
69188;SDS011;56302;52.322;5.926;2022-11-12T11:21:12;18.85;;;10.80;;
69188;SDS011;56302;52.322;5.926;2022-11-12T11:26:30;14.00;;;9.60;;
69188;SDS011;56302;52.322;5.926;2022-11-12T11:29:24;16.85;;;10.35;;
69188;SDS011;56302;52.322;5.926;2022-11-12T11:34:56;16.90;;;9.63;;
69188;SDS011;56302;52.322;5.926;2022-11-12T11:37:37;15.05;;;9.57;;
69188;SDS011;56302;52.322;5.926;2022-11-12T11:57:15;16.27;;;9.32;;
69188;SDS011;56302;52.322;5.926;2022-11-12T12:08:05;19.08;;;9.30;;
69188;SDS011;56302;52.322;5.926;2022-11-12T12:13:05;17.23;;;9.33;;
69188;SDS011;56302;52.322;5.926;2022-11-12T12:16:00;15.93;;;9.43;;
69188;SDS011;56302;52.322;5.926;2022-11-12T12:18:49;13.77;;;8.83;;
69188;SDS011;56302;52.322;5.926;2022-11-12T12:21:20;13.98;;;8.85;;
69188;SDS011;56302;52.322;5.926;2022-11-12T12:23:48;15.95;;;9.68;;
69188;SDS011;56302;52.322;5.926;2022-11-12T12:26:30;13.65;;;8.90;;
69188;SDS011;56302;52.322;5.926;2022-11-12T12:31:38;15.07;;;10.03;;
69188;SDS011;56302;52.322;5.926;2022-11-12T12:36:43;15.73;;;9.88;;
69188;SDS011;56302;52.322;5.926;2022-11-12T12:39:17;14.40;;;9.32;;
69188;SDS011;56302;52.322;5.926;2022-11-12T12:41:54;13.38;;;9.23;;
69188;SDS011;56302;52.322;5.926;2022-11-12T12:44:24;12.97;;;9.00;;
69188;SDS011;56302;52.322;5.926;2022-11-12T12:47:14;13.82;;;9.50;;
69188;SDS011;56302;52.322;5.926;2022-11-12T12:49:43;14.25;;;9.25;;
69188;SDS011;56302;52.322;5.926;2022-11-12T12:52:11;12.70;;;8.93;;
69188;SDS011;56302;52.322;5.926;2022-11-12T12:57:24;13.70;;;8.63;;
69188;SDS011;56302;52.322;5.926;2022-11-12T13:03:00;18.13;;;9.03;;
69188;SDS011;56302;52.322;5.926;2022-11-12T13:05:30;14.10;;;9.40;;
69188;SDS011;56302;52.322;5.926;2022-11-12T13:08:09;16.17;;;9.48;;
69188;SDS011;56302;52.322;5.926;2022-11-12T13:15:45;13.38;;;9.32;;
69188;SDS011;56302;52.322;5.926;2022-11-12T13:21:06;15.25;;;9.60;;
69188;SDS011;56302;52.322;5.926;2022-11-12T13:26:50;12.20;;;8.45;;
69188;SDS011;56302;52.322;5.926;2022-11-12T13:31:49;14.63;;;8.88;;
69188;SDS011;56302;52.322;5.926;2022-11-12T13:34:34;12.85;;;8.75;;
69188;SDS011;56302;52.322;5.926;2022-11-12T13:37:01;16.53;;;10.10;;
69188;SDS011;56302;52.322;5.926;2022-11-12T13:39:30;16.27;;;10.73;;
69188;SDS011;56302;52.322;5.926;2022-11-12T13:41:58;16.48;;;10.27;;
69188;SDS011;56302;52.322;5.926;2022-11-12T13:44:44;16.27;;;10.07;;
69188;SDS011;56302;52.322;5.926;2022-11-12T13:47:19;14.32;;;9.55;;
69188;SDS011;56302;52.322;5.926;2022-11-12T13:49:46;16.20;;;9.90;;
69188;SDS011;56302;52.322;5.926;2022-11-12T13:52:13;13.32;;;9.40;;
69188;SDS011;56302;52.322;5.926;2022-11-12T13:54:39;13.95;;;9.63;;
69188;SDS011;56302;52.322;5.926;2022-11-12T13:59:45;14.98;;;11.00;;
69188;SDS011;56302;52.322;5.926;2022-11-12T14:02:17;16.90;;;10.37;;
69188;SDS011;56302;52.322;5.926;2022-11-12T14:04:49;13.63;;;8.98;;
69188;SDS011;56302;52.322;5.926;2022-11-12T14:10:14;16.40;;;8.68;;
69188;SDS011;56302;52.322;5.926;2022-11-12T14:13:10;13.85;;;9.70;;
69188;SDS011;56302;52.322;5.926;2022-11-12T14:15:48;13.23;;;8.47;;
69188;SDS011;56302;52.322;5.926;2022-11-12T14:20:50;14.32;;;8.95;;
69188;SDS011;56302;52.322;5.926;2022-11-12T14:23:17;12.80;;;8.65;;
69188;SDS011;56302;52.322;5.926;2022-11-12T14:25:48;14.25;;;9.73;;
69188;SDS011;56302;52.322;5.926;2022-11-12T14:28:23;13.97;;;8.77;;
69188;SDS011;56302;52.322;5.926;2022-11-12T14:30:53;15.63;;;9.82;;
69188;SDS011;56302;52.322;5.926;2022-11-12T14:33:21;13.38;;;9.13;;
69188;SDS011;56302;52.322;5.926;2022-11-12T14:35:48;13.85;;;9.70;;
69188;SDS011;56302;52.322;5.926;2022-11-12T14:40:53;18.90;;;9.50;;
69188;SDS011;56302;52.322;5.926;2022-11-12T14:43:23;16.55;;;9.27;;
69188;SDS011;56302;52.322;5.926;2022-11-12T14:45:51;15.07;;;9.95;;
69188;SDS011;56302;52.322;5.926;2022-11-12T14:48:17;14.13;;;9.20;;
69188;SDS011;56302;52.322;5.926;2022-11-12T14:50:44;15.05;;;9.25;;
69188;SDS011;56302;52.322;5.926;2022-11-12T14:53:19;13.27;;;9.50;;
69188;SDS011;56302;52.322;5.926;2022-11-12T14:55:50;12.98;;;9.13;;
69188;SDS011;56302;52.322;5.926;2022-11-12T14:58:19;12.90;;;8.85;;
69188;SDS011;56302;52.322;5.926;2022-11-12T15:00:47;15.20;;;9.88;;
69188;SDS011;56302;52.322;5.926;2022-11-12T15:03:18;12.52;;;8.73;;
69188;SDS011;56302;52.322;5.926;2022-11-12T15:08:56;16.58;;;9.50;;
69188;SDS011;56302;52.322;5.926;2022-11-12T15:11:27;16.05;;;8.90;;
69188;SDS011;56302;52.322;5.926;2022-11-12T15:14:01;14.02;;;9.20;;
69188;SDS011;56302;52.322;5.926;2022-11-12T15:16:34;17.35;;;9.50;;
69188;SDS011;56302;52.322;5.926;2022-11-12T15:21:49;14.48;;;8.75;;
69188;SDS011;56302;52.322;5.926;2022-11-12T15:26:59;13.88;;;8.60;;
69188;SDS011;56302;52.322;5.926;2022-11-12T15:29:45;15.85;;;8.10;;
69188;SDS011;56302;52.322;5.926;2022-11-12T15:37:06;18.13;;;8.45;;
69188;SDS011;56302;52.322;5.926;2022-11-12T15:39:38;14.63;;;8.07;;
69188;SDS011;56302;52.322;5.926;2022-11-12T15:42:16;20.23;;;8.27;;
69188;SDS011;56302;52.322;5.926;2022-11-12T15:44:49;16.03;;;7.87;;
69188;SDS011;56302;52.322;5.926;2022-11-12T15:47:21;15.32;;;7.85;;
69188;SDS011;56302;52.322;5.926;2022-11-12T15:49:50;11.40;;;7.60;;
69188;SDS011;56302;52.322;5.926;2022-11-12T15:52:17;12.50;;;7.70;;
69188;SDS011;56302;52.322;5.926;2022-11-12T15:54:43;11.40;;;7.43;;
69188;SDS011;56302;52.322;5.926;2022-11-12T15:57:15;15.10;;;8.15;;
69188;SDS011;56302;52.322;5.926;2022-11-12T15:59:44;13.55;;;8.57;;
69188;SDS011;56302;52.322;5.926;2022-11-12T16:02:18;12.45;;;7.68;;
69188;SDS011;56302;52.322;5.926;2022-11-12T16:04:43;13.33;;;7.40;;
69188;SDS011;56302;52.322;5.926;2022-11-12T16:07:09;11.38;;;7.03;;
69188;SDS011;56302;52.322;5.926;2022-11-12T16:09:35;10.82;;;6.00;;
69188;SDS011;56302;52.322;5.926;2022-11-12T16:12:01;9.33;;;5.83;;
69188;SDS011;56302;52.322;5.926;2022-11-12T16:14:27;10.98;;;6.53;;
69188;SDS011;56302;52.322;5.926;2022-11-12T16:16:52;9.57;;;5.43;;
69188;SDS011;56302;52.322;5.926;2022-11-12T16:19:18;10.23;;;5.75;;
69188;SDS011;56302;52.322;5.926;2022-11-12T16:21:44;9.80;;;6.23;;
69188;SDS011;56302;52.322;5.926;2022-11-12T16:24:09;9.70;;;6.25;;
69188;SDS011;56302;52.322;5.926;2022-11-12T16:26:35;11.03;;;6.30;;
69188;SDS011;56302;52.322;5.926;2022-11-12T16:29:01;10.02;;;6.30;;
69188;SDS011;56302;52.322;5.926;2022-11-12T16:31:27;9.85;;;6.40;;
69188;SDS011;56302;52.322;5.926;2022-11-12T16:33:53;10.45;;;6.20;;
69188;SDS011;56302;52.322;5.926;2022-11-12T16:36:18;11.57;;;6.53;;